Time;durP1;ratioP1;P1;durP2;ratioP2;P2;SDS_P1;SDS_P2;PMS_P1;PMS_P2;Temp;Humidity;BMP_temperature;BMP_pressure;BME280_temperature;BME280_humidity;BME280_pressure;Samples;Min_cycle;Max_cycle;Signal;HPM_P1;HPM_P2
2021/12/04 00:01:28;;;;;;;3.23;2.63;;;3.20;99.90;;;4.04;100.00;98958.63;5072799;28;20240;-70
2021/12/04 00:03:57;;;;;;;4.90;3.00;;;3.20;99.90;;;4.13;100.00;98952.03;5072616;28;20244;-64
2021/12/04 00:06:27;;;;;;;3.70;2.90;;;3.20;99.90;;;4.13;100.00;98951.22;5072772;28;20237;-64
2021/12/04 00:09:02;;;;;;;3.27;2.60;;;3.30;99.90;;;4.16;100.00;98943.63;5072343;28;20248;-66
2021/12/04 00:11:31;;;;;;;3.67;2.40;;;3.30;99.90;;;4.14;100.00;98944.88;5072688;28;20180;-64
2021/12/04 00:14:00;;;;;;;4.47;2.40;;;3.30;99.90;;;4.14;100.00;98937.72;5083908;28;20243;-67
2021/12/04 00:16:28;;;;;;;3.80;2.73;;;3.30;99.90;;;4.04;100.00;98952.47;5092809;28;20738;-67
2021/12/04 00:18:56;;;;;;;2.47;2.20;;;3.30;99.90;;;3.97;100.00;98946.34;5092811;28;20201;-66
2021/12/04 00:21:24;;;;;;;5.23;2.70;;;3.30;99.90;;;3.84;100.00;98943.72;5092426;28;20788;-66
2021/12/04 00:23:52;;;;;;;2.93;2.30;;;3.20;99.90;;;3.90;100.00;98935.69;5092647;28;20228;-68
2021/12/04 00:26:20;;;;;;;3.63;2.40;;;3.20;99.90;;;4.08;100.00;98935.88;5092894;28;20256;-66
2021/12/04 00:28:50;;;;;;;5.03;2.63;;;3.20;99.90;;;4.05;100.00;98928.28;5092693;28;20274;-66
2021/12/04 00:31:18;;;;;;;2.27;2.07;;;3.20;99.90;;;3.96;100.00;98934.06;5092680;28;20193;-67
2021/12/04 00:33:47;;;;;;;3.97;2.23;;;3.30;99.90;;;4.04;100.00;98926.66;5092522;28;20236;-67
2021/12/04 00:36:26;;;;;;;2.90;2.40;;;3.30;99.90;;;3.92;100.00;98922.19;5092691;28;20293;-66
2021/12/04 00:49:59;;;;;;;3.97;2.40;;;3.30;99.90;;;3.92;100.00;98925.66;5090505;28;20675;-66
2021/12/04 00:52:28;;;;;;;4.47;2.37;;;3.30;99.90;;;4.20;100.00;98936.88;5092133;28;20396;-66
2021/12/04 00:55:01;;;;;;;3.20;2.20;;;3.30;99.90;;;3.99;100.00;98925.66;5094061;28;20536;-66
2021/12/04 00:57:29;;;;;;;3.60;2.37;;;3.30;99.90;;;3.90;100.00;98922.38;5094450;28;20691;-66
2021/12/04 01:00:00;;;;;;;2.90;2.07;;;3.30;99.90;;;4.02;100.00;98927.88;5094347;28;20249;-69
2021/12/04 01:02:28;;;;;;;3.40;2.40;;;3.30;99.90;;;4.03;100.00;98932.19;5094517;28;20181;-67
2021/12/04 01:04:56;;;;;;;2.70;2.30;;;3.30;99.90;;;4.10;100.00;98931.16;5094057;28;20255;-67
2021/12/04 01:07:25;;;;;;;3.37;2.50;;;3.30;99.90;;;4.02;100.00;98928.72;5094068;28;20203;-67
2021/12/04 01:09:54;;;;;;;5.20;2.40;;;3.30;99.90;;;4.22;100.00;98928.66;5093239;28;20234;-66
2021/12/04 01:12:22;;;;;;;3.20;2.30;;;3.30;99.90;;;4.09;100.00;98926.88;5094218;28;20611;-68
2021/12/04 01:14:50;;;;;;;3.30;2.57;;;3.30;99.90;;;4.07;100.00;98926.25;5093833;28;20299;-67
2021/12/04 01:17:19;;;;;;;2.40;2.20;;;3.30;99.90;;;3.94;100.00;98915.59;5094023;28;20300;-67
2021/12/04 01:19:47;;;;;;;2.10;1.90;;;3.30;99.90;;;4.09;100.00;98924.19;5094079;28;20674;-66
2021/12/04 01:22:19;;;;;;;3.30;2.17;;;3.30;99.90;;;4.19;100.00;98921.91;5093787;28;20203;-67
2021/12/04 01:24:47;;;;;;;3.10;2.40;;;3.30;99.90;;;4.13;100.00;98913.91;5093625;28;20188;-66
2021/12/04 01:27:15;;;;;;;3.30;2.20;;;3.30;99.90;;;4.05;100.00;98920.31;5093572;28;20288;-66
2021/12/04 01:29:43;;;;;;;2.40;2.20;;;3.30;99.90;;;4.33;100.00;98910.16;5093260;28;20282;-66
2021/12/04 01:32:12;;;;;;;2.47;2.00;;;3.40;99.90;;;4.08;100.00;98905.72;5094056;28;20342;-67
2021/12/04 01:34:41;;;;;;;2.17;1.97;;;3.40;99.90;;;4.01;100.00;98903.09;5093874;28;20733;-67
2021/12/04 01:37:09;;;;;;;2.93;2.10;;;3.40;99.90;;;4.08;100.00;98900.41;5093999;28;20271;-67
2021/12/04 01:39:38;;;;;;;3.50;2.13;;;3.40;99.90;;;4.14;100.00;98905.75;5094000;28;20197;-66
2021/12/04 01:42:06;;;;;;;3.60;2.20;;;3.40;99.90;;;4.27;100.00;98897.69;5093762;28;20204;-67
2021/12/04 01:44:34;;;;;;;3.40;2.50;;;3.40;99.90;;;4.04;100.00;98893.88;5093789;28;20746;-67
2021/12/04 01:47:13;;;;;;;2.30;2.10;;;3.40;99.90;;;4.15;100.00;98899.38;5093697;28;20236;-66
2021/12/04 01:49:43;;;;;;;2.83;2.13;;;3.40;99.90;;;4.08;100.00;98889.75;5092420;28;20662;-66
2021/12/04 01:52:11;;;;;;;3.63;2.40;;;3.30;99.90;;;4.12;100.00;98897.13;5097219;28;20235;-66
2021/12/04 01:54:40;;;;;;;2.60;2.20;;;3.30;99.90;;;4.30;100.00;98899.09;5097292;28;20696;-67
2021/12/04 01:57:08;;;;;;;3.40;2.30;;;3.40;99.90;;;4.04;100.00;98888.53;5096657;28;20200;-68
2021/12/04 01:59:36;;;;;;;4.53;2.80;;;3.40;99.90;;;3.90;100.00;98886.94;5096366;28;20593;-67
2021/12/04 02:02:05;;;;;;;3.57;2.20;;;3.30;99.90;;;4.11;100.00;98876.81;5096275;28;20660;-67
2021/12/04 02:04:33;;;;;;;3.30;2.30;;;3.30;99.90;;;4.05;100.00;98884.84;5096758;28;20248;-66
2021/12/04 02:07:04;;;;;;;3.43;2.53;;;3.30;99.90;;;3.89;100.00;98872.78;5096949;28;20200;-66
2021/12/04 02:09:33;;;;;;;3.63;2.43;;;3.30;99.90;;;3.99;100.00;98870.50;5096771;28;20780;-66
2021/12/04 02:12:03;;;;;;;3.17;2.40;;;3.30;99.90;;;3.95;100.00;98866.66;5096657;28;20225;-66
2021/12/04 02:14:31;;;;;;;4.10;2.40;;;3.30;99.90;;;4.17;100.00;98861.84;5096758;28;20255;-66
2021/12/04 02:17:00;;;;;;;4.13;2.20;;;3.30;99.90;;;4.04;100.00;98859.25;5096970;28;20699;-66
2021/12/04 02:19:28;;;;;;;4.03;2.30;;;3.30;99.90;;;4.13;100.00;98856.13;5096272;28;20212;-68
2021/12/04 02:21:58;;;;;;;3.70;2.90;;;3.30;99.90;;;4.06;100.00;98863.31;5096640;28;20236;-66
2021/12/04 02:24:26;;;;;;;5.07;2.70;;;3.30;99.90;;;4.05;100.00;98848.38;5095578;28;20199;-66
2021/12/04 02:26:54;;;;;;;2.97;2.50;;;3.30;99.90;;;4.23;100.00;98850.38;5095902;28;20288;-66
2021/12/04 02:29:22;;;;;;;4.53;2.30;;;3.30;99.90;;;4.20;100.00;98846.25;5094979;28;20220;-67
2021/12/04 02:31:53;;;;;;;2.70;2.20;;;3.40;99.90;;;4.21;100.00;98847.88;5094910;28;20237;-67
2021/12/04 02:34:23;;;;;;;3.53;2.87;;;3.40;99.90;;;4.42;100.00;98844.09;5094547;28;20195;-67
2021/12/04 02:36:52;;;;;;;3.90;2.60;;;3.40;99.90;;;4.16;100.00;98838.91;5094735;28;20252;-67
2021/12/04 02:39:29;;;;;;;3.93;2.60;;;3.40;99.90;;;3.89;100.00;98843.50;5094629;28;20220;-67
2021/12/04 02:42:00;;;;;;;3.80;2.43;;;3.30;99.90;;;4.01;100.00;98836.50;5094575;28;20209;-68
2021/12/04 02:44:37;;;;;;;4.73;2.70;;;3.30;99.90;;;4.20;100.00;98834.78;5094461;28;20325;-67
2021/12/04 02:47:07;;;;;;;5.27;2.50;;;3.30;99.90;;;4.06;100.00;98835.88;5094691;28;20190;-65
2021/12/04 02:49:35;;;;;;;2.90;2.20;;;3.40;99.90;;;4.07;100.00;98822.34;5093997;28;20305;-68
2021/12/04 02:52:05;;;;;;;3.77;2.20;;;3.30;99.90;;;4.30;100.00;98827.16;5094385;28;20231;-67
2021/12/04 02:54:36;;;;;;;3.97;2.13;;;3.40;99.90;;;4.25;100.00;98827.78;5094124;28;20201;-68
2021/12/04 02:57:07;;;;;;;2.80;2.27;;;3.40;99.90;;;4.12;100.00;98824.38;5094254;28;20239;-65
2021/12/04 02:59:38;;;;;;;5.43;2.60;;;3.40;99.90;;;3.83;100.00;98814.22;5094584;28;20228;-67
2021/12/04 03:02:10;;;;;;;3.87;2.67;;;3.30;99.90;;;3.93;100.00;98807.44;5094470;28;20217;-67
2021/12/04 03:04:38;;;;;;;3.50;2.63;;;3.20;99.90;;;3.96;100.00;98800.88;5094483;28;20186;-66
2021/12/04 03:07:06;;;;;;;4.50;2.93;;;3.20;99.90;;;3.95;100.00;98781.41;5094055;28;20306;-66
2021/12/04 03:09:37;;;;;;;3.27;2.60;;;3.20;99.90;;;3.98;100.00;98777.47;5093883;28;20905;-68
2021/12/04 03:12:07;;;;;;;5.37;2.77;;;3.10;99.90;;;3.94;100.00;98777.09;5093783;28;20283;-67
2021/12/04 03:14:36;;;;;;;3.70;2.60;;;3.10;99.90;;;3.72;100.00;98775.78;5094325;28;20296;-67
2021/12/04 03:17:05;;;;;;;4.23;2.67;;;3.10;99.90;;;3.77;100.00;98775.94;5094088;28;20285;-67
2021/12/04 03:19:34;;;;;;;3.37;2.80;;;3.10;99.90;;;3.84;100.00;98779.38;5094030;28;20288;-66
2021/12/04 03:22:03;;;;;;;4.27;3.03;;;3.10;99.90;;;3.85;100.00;98772.22;5093811;28;20231;-68
2021/12/04 03:24:35;;;;;;;3.40;2.83;;;3.10;99.90;;;3.81;100.00;98765.66;5093944;28;20539;-67
2021/12/04 03:27:06;;;;;;;4.83;2.60;;;3.10;99.90;;;4.11;100.00;98761.47;5093962;28;20193;-67
2021/12/04 03:29:38;;;;;;;2.63;2.30;;;3.20;99.90;;;4.10;100.00;98754.47;5093793;28;20242;-68
2021/12/04 03:32:23;;;;;;;4.50;2.80;;;3.20;99.90;;;4.20;100.00;98755.66;5093753;28;20228;-66
2021/12/04 03:40:35;;;;;;;3.13;2.27;;;3.30;99.90;;;4.21;100.00;98751.94;5097158;28;20220;-66
2021/12/04 03:43:08;;;;;;;2.90;2.37;;;3.30;99.90;;;4.42;100.00;98753.47;5114292;28;20232;-67
2021/12/04 03:45:41;;;;;;;4.33;2.50;;;3.40;99.90;;;4.39;100.00;98746.75;5114073;28;20268;-67
2021/12/04 03:48:13;;;;;;;2.43;2.20;;;3.40;99.90;;;4.35;100.00;98745.53;5107400;28;20279;-68
2021/12/04 03:50:41;;;;;;;2.47;2.27;;;3.50;99.90;;;4.27;100.00;98755.63;5093124;28;20693;-67
2021/12/04 03:53:09;;;;;;;3.77;2.40;;;3.50;99.90;;;4.46;100.00;98744.84;5093004;28;20204;-68
2021/12/04 03:55:39;;;;;;;3.07;2.30;;;3.50;99.90;;;4.31;100.00;98749.63;5093471;28;20234;-67
2021/12/04 03:58:08;;;;;;;4.83;2.50;;;3.40;99.90;;;4.28;100.00;98746.63;5093024;28;20229;-67
2021/12/04 04:00:36;;;;;;;3.33;2.27;;;3.40;99.90;;;4.24;100.00;98753.38;5093272;28;20197;-66
2021/12/04 04:03:04;;;;;;;4.13;2.70;;;3.40;99.90;;;4.08;100.00;98754.69;5093141;28;20266;-67
2021/12/04 04:05:33;;;;;;;5.67;3.20;;;3.40;99.90;;;3.94;100.00;98749.66;5093255;28;20206;-67
2021/12/04 04:08:01;;;;;;;3.63;2.83;;;3.20;99.90;;;3.82;100.00;98743.34;5092888;28;20659;-67
2021/12/04 04:10:29;;;;;;;4.13;3.10;;;3.10;99.90;;;3.66;100.00;98739.31;5093115;28;20300;-67
2021/12/04 04:12:57;;;;;;;3.77;3.37;;;3.00;99.90;;;3.52;100.00;98732.38;5092836;28;20239;-67
2021/12/04 04:15:26;;;;;;;4.23;3.57;;;2.90;99.90;;;3.47;100.00;98730.38;5093199;28;20232;-67
2021/12/04 04:17:54;;;;;;;4.87;3.87;;;2.90;99.90;;;3.33;100.00;98744.72;5093168;28;20325;-67
2021/12/04 04:20:23;;;;;;;7.93;4.53;;;2.80;99.90;;;3.34;100.00;98741.06;5092712;28;20293;-66
2021/12/04 04:22:51;;;;;;;5.13;3.73;;;2.70;99.90;;;3.32;100.00;98736.97;5092725;28;20277;-66
2021/12/04 04:25:19;;;;;;;5.33;4.30;;;2.60;99.90;;;3.32;100.00;98735.13;5092809;28;20235;-66
2021/12/04 04:27:47;;;;;;;5.60;4.40;;;2.60;99.90;;;3.39;100.00;98727.13;5092841;28;20288;-67
2021/12/04 04:30:19;;;;;;;5.30;4.47;;;2.60;99.90;;;3.26;100.00;98735.13;5092489;28;20220;-67
2021/12/04 04:32:50;;;;;;;5.00;3.90;;;2.60;99.90;;;3.23;100.00;98731.03;5092795;28;20214;-68
2021/12/04 04:35:21;;;;;;;6.57;5.00;;;2.60;99.90;;;3.26;100.00;98737.81;5092878;28;20276;-68
2021/12/04 04:37:55;;;;;;;5.40;4.43;;;2.60;99.90;;;2.98;100.00;98738.03;5092224;28;20725;-67
2021/12/04 04:57:36;;;;;;;7.73;5.20;;;1.90;99.90;;;2.65;100.00;98717.81;5092156;28;20191;-68
2021/12/04 05:00:20;;;;;;;6.53;4.67;;;1.90;99.90;;;2.83;100.00;98708.19;5092578;28;20214;-68
2021/12/04 05:11:16;;;;;;;7.20;5.20;;;1.70;99.90;;;2.66;100.00;98711.47;5092367;28;20205;-67
2021/12/04 05:13:44;;;;;;;6.83;5.17;;;1.80;99.90;;;2.54;100.00;98702.50;5092611;28;20190;-68
2021/12/04 05:16:14;;;;;;;7.53;5.57;;;1.70;99.90;;;2.51;100.00;98695.75;5092388;28;20296;-68
2021/12/04 05:18:53;;;;;;;8.13;5.70;;;1.70;99.90;;;2.40;100.00;98702.47;5092307;28;20210;-70
2021/12/04 05:21:22;;;;;;;7.47;5.57;;;1.70;99.90;;;2.44;100.00;98692.25;5092476;28;20253;-68
2021/12/04 05:23:54;;;;;;;7.13;5.30;;;1.70;99.90;;;2.59;100.00;98695.53;5091904;28;20288;-68
2021/12/04 05:26:26;;;;;;;8.00;6.40;;;1.70;99.90;;;2.63;100.00;98694.09;5094226;28;20690;-68
2021/12/04 05:28:58;;;;;;;9.60;5.97;;;1.70;99.90;;;2.47;100.00;98702.47;5096046;28;20188;-68
2021/12/04 05:31:27;;;;;;;8.80;6.40;;;1.70;99.90;;;2.44;100.00;98698.41;5096091;28;20242;-68
2021/12/04 05:33:55;;;;;;;8.23;6.63;;;1.70;99.90;;;2.32;100.00;98699.19;5095436;28;20632;-68
2021/12/04 05:36:25;;;;;;;9.03;6.57;;;1.70;99.90;;;2.53;100.00;98695.53;5095982;28;20679;-68
2021/12/04 05:38:53;;;;;;;8.40;6.10;;;1.70;99.90;;;2.52;100.00;98701.88;5095605;28;20253;-68
2021/12/04 05:41:22;;;;;;;7.93;6.20;;;1.70;99.90;;;2.37;100.00;98697.56;5095994;28;20278;-69
2021/12/04 05:43:50;;;;;;;10.03;7.17;;;1.60;99.90;;;2.31;100.00;98697.56;5095522;28;20633;-68
2021/12/04 05:46:21;;;;;;;9.43;7.00;;;1.60;99.90;;;2.36;100.00;98685.31;5095806;28;20199;-68
2021/12/04 05:48:53;;;;;;;10.50;7.77;;;1.60;99.90;;;2.25;100.00;98688.56;5095634;28;20241;-70
2021/12/04 05:51:51;;;;;;;9.50;7.43;;;1.50;99.90;;;2.34;100.00;98690.00;5096943;28;20204;-69
2021/12/04 05:54:32;;;;;;;10.20;7.77;;;1.60;99.90;;;2.27;100.00;98689.19;5096673;28;20571;-69
2021/12/04 05:57:01;;;;;;;12.47;8.10;;;1.60;99.90;;;2.36;100.00;98695.94;5096224;28;20211;-69
2021/12/04 05:59:29;;;;;;;12.60;8.33;;;1.60;99.90;;;2.31;100.00;98694.91;5096076;28;20228;-69
2021/12/04 06:01:58;;;;;;;11.70;8.83;;;1.60;99.90;;;2.23;100.00;98689.81;5095676;28;20254;-68
2021/12/04 06:04:27;;;;;;;11.03;8.27;;;1.50;99.90;;;2.27;100.00;98689.19;5095203;28;20718;-69
2021/12/04 06:06:56;;;;;;;13.27;8.97;;;1.50;99.90;;;2.34;100.00;98692.66;5095197;28;20730;-68
2021/12/04 06:09:25;;;;;;;11.93;8.60;;;1.50;99.90;;;2.21;100.00;98697.97;5095131;28;20227;-68
2021/12/04 06:11:54;;;;;;;11.60;9.37;;;1.50;99.90;;;2.24;100.00;98702.88;5095679;28;20224;-69
2021/12/04 06:14:22;;;;;;;14.00;8.13;;;1.50;99.90;;;2.24;100.00;98697.56;5096168;28;20206;-68
2021/12/04 06:16:50;;;;;;;14.00;9.23;;;1.50;99.90;;;2.22;100.00;98694.28;5096061;28;20239;-69
2021/12/04 06:19:27;;;;;;;13.80;9.57;;;1.50;99.90;;;2.24;100.00;98700.22;5095569;28;20646;-69
2021/12/04 06:24:43;;;;;;;13.70;9.50;;;1.50;99.90;;;2.47;100.00;98678.56;5096156;28;20618;-68
2021/12/04 06:27:11;;;;;;;13.23;9.97;;;1.50;99.90;;;2.48;100.00;98669.59;5096657;28;20288;-69
2021/12/04 06:29:39;;;;;;;14.77;9.93;;;1.60;99.90;;;2.31;100.00;98665.69;5086928;28;20668;-69
2021/12/04 06:32:08;;;;;;;13.30;9.80;;;1.60;99.90;;;2.22;100.00;98661.59;5074941;28;20226;-69
2021/12/04 06:34:36;;;;;;;12.77;9.63;;;1.50;99.90;;;2.26;100.00;98665.50;5074705;28;20295;-69
2021/12/04 06:37:04;;;;;;;12.60;9.80;;;1.50;99.90;;;2.29;100.00;98673.03;5075028;28;20215;-70
2021/12/04 06:39:32;;;;;;;12.43;9.27;;;1.50;99.90;;;2.45;100.00;98675.31;5074966;28;20748;-70
2021/12/04 06:42:02;;;;;;;13.73;9.80;;;1.60;99.90;;;2.34;100.00;98670.59;5075940;28;20592;-69
2021/12/04 06:44:30;;;;;;;13.60;9.33;;;1.50;99.90;;;2.28;100.00;98668.75;5075355;28;20636;-69
2021/12/04 06:46:58;;;;;;;14.73;10.70;;;1.60;99.90;;;2.22;100.00;98667.72;5075785;28;20239;-68
2021/12/04 06:49:30;;;;;;;12.90;9.17;;;1.50;99.90;;;2.30;100.00;98674.69;5092232;28;20683;-69
2021/12/04 06:52:01;;;;;;;12.17;9.13;;;1.50;99.90;;;2.43;100.00;98678.19;5095580;28;20633;-69
2021/12/04 06:54:33;;;;;;;14.40;9.63;;;1.60;99.90;;;2.55;100.00;98683.69;5094679;28;20275;-69
2021/12/04 06:57:09;;;;;;;12.53;9.77;;;1.60;99.90;;;2.36;100.00;98690.63;5095096;28;20635;-69
2021/12/04 06:59:39;;;;;;;13.00;10.27;;;1.60;99.90;;;2.47;100.00;98692.66;5095444;28;20193;-69
2021/12/04 07:02:07;;;;;;;12.43;9.30;;;1.70;99.90;;;2.56;100.00;98684.47;5095194;28;20180;-70
2021/12/04 07:04:37;;;;;;;12.83;9.43;;;1.70;99.90;;;2.56;100.00;98677.34;5094163;28;20659;-70
2021/12/04 07:07:06;;;;;;;14.60;10.03;;;1.70;99.90;;;2.52;100.00;98680.63;5094667;28;20200;-69
2021/12/04 07:09:35;;;;;;;13.97;10.63;;;1.70;99.90;;;2.44;100.00;98671.81;5094808;28;20203;-69
2021/12/04 07:12:06;;;;;;;12.57;9.50;;;1.80;99.90;;;2.83;100.00;98683.44;5095360;28;20234;-69
2021/12/04 07:14:35;;;;;;;12.03;9.07;;;1.80;99.90;;;2.61;100.00;98682.84;5094493;28;20216;-69
2021/12/04 07:17:05;;;;;;;13.43;9.43;;;1.80;99.90;;;2.52;100.00;98668.13;5094832;28;20212;-70
2021/12/04 07:19:33;;;;;;;13.67;9.23;;;1.80;99.90;;;2.50;100.00;98665.69;5095114;28;20286;-69
2021/12/04 07:22:02;;;;;;;13.23;9.50;;;1.80;99.90;;;2.41;100.00;98655.47;5094941;28;20246;-70
2021/12/04 07:24:31;;;;;;;11.53;9.00;;;1.80;99.90;;;2.57;100.00;98662.22;5094939;28;20660;-70
2021/12/04 07:27:00;;;;;;;14.73;9.80;;;1.80;99.90;;;2.82;100.00;98653.41;5094430;28;20235;-70
2021/12/04 07:29:29;;;;;;;12.23;9.30;;;1.80;99.90;;;2.90;100.00;98641.72;5095289;28;20199;-68
2021/12/04 07:31:57;;;;;;;13.50;10.00;;;1.90;99.90;;;2.84;100.00;98639.91;5095199;28;20220;-70
2021/12/04 07:34:25;;;;;;;14.70;9.87;;;1.90;99.90;;;2.89;100.00;98640.09;5095230;28;20254;-69
2021/12/04 07:36:53;;;;;;;16.33;10.17;;;1.90;99.90;;;2.79;100.00;98643.16;5095756;28;20204;-70
2021/12/04 07:39:21;;;;;;;13.80;10.10;;;1.90;99.90;;;2.99;100.00;98637.81;5095645;28;20287;-69
2021/12/04 07:41:49;;;;;;;11.33;8.23;;;2.00;99.90;;;2.71;100.00;98642.56;5095306;28;20279;-70
2021/12/04 07:44:17;;;;;;;12.20;9.63;;;2.00;99.90;;;2.72;100.00;98634.41;5094779;28;20239;-70
2021/12/04 07:46:47;;;;;;;13.83;10.30;;;2.00;99.90;;;2.95;100.00;98631.28;5094959;28;20335;-69
2021/12/04 07:49:15;;;;;;;11.60;9.20;;;2.00;99.90;;;2.87;100.00;98627.00;5093887;28;20224;-70
2021/12/04 07:51:44;;;;;;;13.27;9.80;;;2.00;99.90;;;2.93;100.00;98620.84;5085615;28;20258;-70
2021/12/04 07:54:13;;;;;;;12.47;9.10;;;2.10;99.90;;;2.79;100.00;98627.22;5082239;28;20216;-70
2021/12/04 07:56:41;;;;;;;11.63;9.27;;;2.00;99.90;;;2.84;100.00;98615.97;5074087;28;20243;-68
2021/12/04 07:59:09;;;;;;;12.90;9.33;;;2.10;99.90;;;2.81;100.00;98611.06;5078482;28;20303;-64
2021/12/04 08:01:38;;;;;;;11.57;9.27;;;2.10;99.90;;;2.86;100.00;98611.25;5076177;28;20231;-69
2021/12/04 08:04:07;;;;;;;11.97;9.20;;;2.10;99.90;;;2.92;100.00;98611.25;5093670;28;20215;-64
2021/12/04 08:06:35;;;;;;;12.93;10.03;;;2.20;99.90;;;3.12;100.00;98621.81;5080000;28;20242;-65
2021/12/04 08:09:04;;;;;;;12.57;9.20;;;2.30;99.90;;;3.08;100.00;98617.94;5093018;28;20686;-64
2021/12/04 08:11:33;;;;;;;11.93;8.97;;;2.30;99.90;;;3.34;100.00;98620.50;5080778;28;20216;-69
2021/12/04 08:14:01;;;;;;;12.73;9.17;;;2.40;99.90;;;3.33;100.00;98635.63;5073308;28;20598;-70
2021/12/04 08:16:32;;;;;;;12.33;8.47;;;2.40;99.90;;;3.34;100.00;98631.13;5073724;28;20274;-69
2021/12/04 08:19:01;;;;;;;11.47;9.00;;;2.40;99.90;;;3.48;100.00;98624.75;5073665;28;20190;-70
2021/12/04 08:21:31;;;;;;;13.03;9.20;;;2.50;99.90;;;3.40;100.00;98628.44;5075120;28;20232;-69
2021/12/04 08:23:59;;;;;;;12.53;9.07;;;2.50;99.90;;;3.26;100.00;98632.22;5093131;28;20666;-69
2021/12/04 08:26:27;;;;;;;14.80;9.60;;;2.50;99.90;;;3.38;100.00;98633.16;5093909;28;20309;-70
2021/12/04 08:28:55;;;;;;;11.90;8.90;;;2.60;99.90;;;3.51;100.00;98633.13;5094408;28;20250;-69
2021/12/04 08:31:24;;;;;;;12.07;9.47;;;2.70;99.90;;;3.51;100.00;98622.47;5093572;28;20242;-68
2021/12/04 08:33:52;;;;;;;12.93;9.67;;;2.70;99.90;;;3.65;100.00;98629.34;5094977;28;20303;-68
2021/12/04 08:36:21;;;;;;;11.20;9.67;;;2.70;99.90;;;3.67;100.00;98632.59;5093721;28;20299;-68
2021/12/04 08:38:50;;;;;;;12.47;9.87;;;2.80;99.90;;;3.84;100.00;98627.59;5095172;28;20710;-68
2021/12/04 08:41:20;;;;;;;12.43;8.93;;;2.90;99.90;;;3.75;100.00;98628.88;5095697;28;20586;-68
2021/12/04 08:43:49;;;;;;;11.73;8.87;;;2.90;99.90;;;3.82;100.00;98626.19;5093910;28;20318;-70
2021/12/04 08:46:20;;;;;;;14.67;10.27;;;2.90;99.90;;;3.75;100.00;98627.03;5092856;28;20657;-68
2021/12/04 08:48:50;;;;;;;12.03;9.00;;;2.90;99.90;;;3.81;100.00;98620.03;5092805;28;20196;-73
2021/12/04 08:51:21;;;;;;;12.87;8.77;;;2.90;99.90;;;3.65;100.00;98624.00;5092951;28;20276;-66
2021/12/04 08:53:53;;;;;;;10.70;8.33;;;2.90;99.90;;;3.66;100.00;98628.31;5093134;28;20204;-67
2021/12/04 08:56:21;;;;;;;11.03;9.03;;;2.90;99.90;;;3.89;100.00;98619.78;5093289;28;20184;-68
2021/12/04 08:58:50;;;;;;;13.20;9.73;;;2.90;99.90;;;3.99;100.00;98620.09;5093236;28;20244;-67
2021/12/04 09:01:30;;;;;;;12.53;9.07;;;3.00;99.90;;;3.98;100.00;98623.00;5097558;28;20406;-68
2021/12/04 09:04:05;;;;;;;13.13;9.10;;;3.00;99.90;;;4.07;100.00;98625.19;5097978;28;20191;-68
2021/12/04 09:06:34;;;;;;;10.67;7.90;;;3.00;99.90;;;3.99;100.00;98619.31;5096963;28;20208;-68
2021/12/04 09:09:06;;;;;;;11.43;8.37;;;3.10;99.90;;;4.08;100.00;98626.00;5095908;28;20634;-69
2021/12/04 09:11:39;;;;;;;12.67;9.77;;;3.00;99.90;;;4.03;100.00;98633.81;5096313;28;20590;-67
2021/12/04 09:14:07;;;;;;;12.97;9.10;;;3.10;99.90;;;3.98;100.00;98629.16;5095757;28;20315;-66
2021/12/04 09:16:36;;;;;;;11.87;9.13;;;3.10;99.90;;;4.02;100.00;98637.53;5096252;28;20212;-70
2021/12/04 09:19:04;;;;;;;10.97;9.13;;;3.20;99.90;;;4.19;100.00;98635.97;5096469;28;20204;-73
2021/12/04 09:21:35;;;;;;;11.77;8.90;;;3.20;99.90;;;4.17;100.00;98638.03;5095859;28;20204;-75
2021/12/04 09:24:09;;;;;;;10.40;8.13;;;3.10;99.90;;;4.11;100.00;98634.38;5095980;28;20228;-65
2021/12/04 09:26:47;;;;;;;10.30;9.00;;;3.10;99.90;;;4.13;100.00;98631.50;5096041;28;20192;-65
2021/12/04 09:29:35;;;;;;;12.07;9.00;;;3.10;99.90;;;4.09;100.00;98624.97;5095734;28;20776;-63
2021/12/04 10:00:12;;;;;;;12.17;9.37;;;3.50;99.90;;;4.79;100.00;98598.72;5095201;28;20530;-62
2021/12/04 10:03:03;;;;;;;9.50;7.50;;;3.60;99.90;;;4.77;100.00;98582.09;5095271;28;20181;-63
2021/12/04 10:11:43;;;;;;;9.30;7.33;;;3.90;99.90;;;5.08;100.00;98583.00;5094262;28;20693;-64
2021/12/04 10:14:44;;;;;;;10.70;7.90;;;3.90;99.90;;;5.02;100.00;98579.38;5090601;28;20314;-63
2021/12/04 10:17:44;;;;;;;8.70;7.63;;;3.90;99.90;;;5.06;100.00;98583.22;5074341;28;20240;-63
2021/12/04 10:20:31;;;;;;;11.63;7.60;;;4.10;99.90;;;5.14;100.00;98579.44;5073817;28;20239;-62
2021/12/04 10:34:26;;;;;;;7.90;6.60;;;4.20;99.90;;;5.22;100.00;98557.78;5130037;28;20213;-63
2021/12/04 10:37:03;;;;;;;9.07;7.67;;;4.20;99.90;;;5.14;100.00;98550.09;5129814;28;20612;-65
2021/12/04 10:39:32;;;;;;;8.90;8.00;;;4.20;99.90;;;5.16;100.00;98550.69;5130204;28;20210;-64
2021/12/04 10:42:04;;;;;;;9.10;7.73;;;4.20;99.90;;;5.16;100.00;98542.69;5130446;28;20318;-69
2021/12/04 10:44:38;;;;;;;8.23;7.30;;;4.30;99.90;;;5.36;100.00;98544.03;5130096;28;20245;-66
2021/12/04 10:47:12;;;;;;;8.20;7.10;;;4.30;99.90;;;5.43;100.00;98527.94;5130501;28;20274;-66
2021/12/04 10:49:53;;;;;;;7.70;6.80;;;4.40;99.90;;;5.42;100.00;98524.44;5126629;28;20278;-68
2021/12/04 10:52:32;;;;;;;8.23;7.10;;;4.40;99.90;;;5.60;100.00;98512.88;5131397;27;20175;-65
2021/12/04 10:55:17;;;;;;;8.87;7.37;;;4.50;99.90;;;5.71;100.00;98514.78;5131562;27;20206;-68
2021/12/04 11:00:50;;;;;;;7.60;6.27;;;4.70;99.90;;;5.75;100.00;98510.63;5118037;27;20316;-72
2021/12/04 11:03:33;;;;;;;7.67;6.50;;;4.80;99.90;;;5.72;100.00;98500.38;5131683;27;20186;-65
2021/12/04 11:21:16;;;;;;;7.50;6.73;;;4.70;99.90;;;5.83;100.00;98500.44;5130215;27;20231;-64
2021/12/04 11:26:53;;;;;;;7.97;6.83;;;4.60;99.90;;;5.96;100.00;98481.53;5130758;28;20271;-65
2021/12/04 11:35:35;;;;;;;7.43;6.07;;;4.90;99.90;;;5.93;100.00;98476.66;5128479;27;20229;-64
2021/12/04 11:43:49;;;;;;;6.53;5.80;;;5.00;99.90;;;6.08;100.00;98473.50;5115889;28;20222;-65
2021/12/04 11:46:22;;;;;;;8.03;6.53;;;5.10;99.90;;;6.25;100.00;98465.59;5115612;28;20327;-65
2021/12/04 11:48:53;;;;;;;7.80;7.00;;;4.90;99.90;;;6.11;100.00;98473.84;5114864;28;20528;-64
2021/12/04 11:51:24;;;;;;;7.40;6.70;;;5.00;99.90;;;6.30;100.00;98465.69;5115715;28;20179;-64
2021/12/04 11:53:57;;;;;;;6.97;6.27;;;4.80;99.90;;;6.15;100.00;98452.81;5115287;28;20293;-65
2021/12/04 11:56:31;;;;;;;6.67;5.97;;;4.90;99.90;;;6.14;100.00;98440.47;5115462;28;20183;-64
2021/12/04 11:58:59;;;;;;;6.87;6.20;;;5.00;99.90;;;6.22;100.00;98435.59;5115026;28;20297;-64
2021/12/04 12:01:31;;;;;;;7.60;6.00;;;5.10;99.90;;;6.21;100.00;98430.47;5115311;28;20211;-65
2021/12/04 12:04:07;;;;;;;6.90;6.20;;;5.00;99.90;;;6.04;100.00;98438.41;5115321;28;20543;-63
2021/12/04 12:06:38;;;;;;;6.97;6.07;;;4.90;99.90;;;6.11;100.00;98435.59;5111873;28;20216;-65
2021/12/04 12:09:14;;;;;;;7.30;6.50;;;4.90;99.90;;;6.00;100.00;98433.78;5094545;28;20805;-64
2021/12/04 12:11:53;;;;;;;7.00;6.30;;;4.80;99.90;;;5.84;100.00;98427.25;5094882;28;20248;-64
2021/12/04 12:14:34;;;;;;;7.20;6.20;;;4.90;99.90;;;5.89;100.00;98429.22;5094463;28;20531;-65
2021/12/04 12:17:03;;;;;;;6.13;5.53;;;4.90;99.90;;;5.82;100.00;98421.31;5094535;28;20219;-65
2021/12/04 12:19:38;;;;;;;6.13;5.53;;;4.90;99.90;;;5.80;100.00;98422.59;5094572;28;20210;-65
2021/12/04 12:22:15;;;;;;;6.47;5.87;;;4.90;99.90;;;5.78;100.00;98420.16;5094744;28;20302;-64
2021/12/04 12:27:51;;;;;;;6.90;6.20;;;4.90;99.90;;;6.03;100.00;98435.97;5094660;28;20192;-66
2021/12/04 12:33:23;;;;;;;6.53;5.83;;;5.00;99.90;;;6.26;100.00;98427.13;5094250;28;20179;-64
2021/12/04 12:36:03;;;;;;;7.43;6.60;;;5.10;99.90;;;6.06;100.00;98417.59;5094216;28;20188;-64
2021/12/04 12:38:44;;;;;;;7.03;5.90;;;5.10;99.90;;;6.06;100.00;98409.59;5094111;28;20191;-65
2021/12/04 12:41:22;;;;;;;7.50;6.70;;;5.10;99.90;;;6.06;100.00;98408.78;5094166;28;20277;-64
2021/12/04 12:44:01;;;;;;;6.60;5.57;;;5.10;99.90;;;6.16;100.00;98400.97;5094235;28;20193;-67
2021/12/04 12:46:44;;;;;;;6.67;5.87;;;5.20;99.90;;;6.19;100.00;98393.28;5093965;28;20203;-64
2021/12/04 12:49:24;;;;;;;6.83;5.77;;;5.30;99.90;;;6.49;100.00;98366.38;5108456;28;20546;-64